createdAt,value
2023-02-17T00:02:39.682Z,12.70
2023-02-17T00:05:40.272Z,13.40
2023-02-17T00:08:46.216Z,13.20
2023-02-17T00:11:47.480Z,14.00
2023-02-17T00:14:54.341Z,14.30
2023-02-17T00:17:55.288Z,15.00
2023-02-17T00:21:00.232Z,15.10
2023-02-17T00:24:03.854Z,16.30
2023-02-17T00:27:06.398Z,14.40
2023-02-17T00:30:09.540Z,15.90
2023-02-17T00:33:10.347Z,15.40
2023-02-17T00:36:11.302Z,14.40
2023-02-17T00:39:11.460Z,14.20
2023-02-17T00:42:11.272Z,14.80
2023-02-17T00:45:14.855Z,15.10
2023-02-17T00:48:16.320Z,16.30
2023-02-17T00:51:16.344Z,16.20
2023-02-17T00:54:18.339Z,13.70
2023-02-17T00:57:21.416Z,16.00
2023-02-17T01:00:23.324Z,14.20
2023-02-17T01:03:24.368Z,14.50
2023-02-17T01:06:34.354Z,16.40
2023-02-17T01:09:34.369Z,14.80
2023-02-17T01:12:36.393Z,15.90
2023-02-17T01:15:37.353Z,15.40
2023-02-17T01:18:41.374Z,15.00
2023-02-17T01:21:44.592Z,14.50
2023-02-17T01:24:44.493Z,15.20
2023-02-17T01:27:44.376Z,13.70
2023-02-17T01:30:45.483Z,14.20
2023-02-17T01:33:47.418Z,13.90
2023-02-17T01:36:48.562Z,15.40
2023-02-17T01:39:49.412Z,14.40
2023-02-17T01:42:50.428Z,15.20
2023-02-17T01:46:04.740Z,14.50
2023-02-17T01:49:05.469Z,14.00
2023-02-17T01:52:14.479Z,15.60
2023-02-17T01:55:21.457Z,14.40
2023-02-17T01:58:21.430Z,13.80
2023-02-17T02:01:21.952Z,14.40
2023-02-17T02:04:23.459Z,14.00
2023-02-17T02:07:30.486Z,13.90
2023-02-17T02:10:33.675Z,14.40
2023-02-17T02:13:35.468Z,14.50
2023-02-17T02:17:00.482Z,13.30
2023-02-17T02:20:11.065Z,14.60
2023-02-17T02:23:47.613Z,13.70
2023-02-17T02:27:02.487Z,13.90
2023-02-17T02:30:29.573Z,16.80
2023-02-17T02:33:41.695Z,14.00
2023-02-17T02:36:51.627Z,18.60
2023-02-17T02:39:53.760Z,16.80
2023-02-17T02:42:55.500Z,14.90
2023-02-17T02:45:57.668Z,14.20
2023-02-17T02:48:57.493Z,14.50
2023-02-17T02:52:02.542Z,15.30
2023-02-17T02:55:27.515Z,14.70
2023-02-17T02:58:42.546Z,14.00
2023-02-17T03:02:29.575Z,14.30
2023-02-17T03:05:47.783Z,15.30
2023-02-17T03:08:50.581Z,15.00
2023-02-17T03:11:52.542Z,15.50
2023-02-17T03:14:58.818Z,14.10
2023-02-17T03:17:58.609Z,13.90
2023-02-17T03:21:05.260Z,14.80
2023-02-17T03:24:08.692Z,14.50
2023-02-17T03:27:11.574Z,13.60
2023-02-17T03:30:12.578Z,13.90
2023-02-17T03:33:12.566Z,12.70
2023-02-17T03:36:12.569Z,14.10
2023-02-17T03:39:16.608Z,13.30
2023-02-17T03:42:16.695Z,14.70
2023-02-17T03:45:17.609Z,13.30
2023-02-17T03:48:24.898Z,13.70
2023-02-17T03:51:27.675Z,14.60
2023-02-17T03:54:29.651Z,14.40
2023-02-17T03:57:29.692Z,14.20
2023-02-17T04:00:29.712Z,15.00
2023-02-17T04:03:32.738Z,13.40
2023-02-17T04:06:33.711Z,12.10
2023-02-17T04:09:37.858Z,12.90
2023-02-17T04:12:39.078Z,12.50
2023-02-17T04:15:41.728Z,14.00
2023-02-17T04:18:42.776Z,13.50
2023-02-17T04:21:43.717Z,12.60
2023-02-17T04:24:44.720Z,12.30
2023-02-17T04:27:44.690Z,12.00
2023-02-17T04:30:45.771Z,12.20
2023-02-17T04:33:53.202Z,11.60
2023-02-17T04:36:53.780Z,12.80
2023-02-17T04:39:54.913Z,12.20
2023-02-17T04:42:55.798Z,12.40
2023-02-17T04:45:58.760Z,12.20
2023-02-17T04:49:01.673Z,11.60
2023-02-17T04:52:01.760Z,12.60
2023-02-17T04:55:02.716Z,10.80
2023-02-17T04:58:02.756Z,11.80
2023-02-17T05:01:04.779Z,11.90
2023-02-17T05:04:04.726Z,12.20
2023-02-17T05:07:06.799Z,10.70
2023-02-17T05:10:13.758Z,12.00
2023-02-17T05:13:17.820Z,12.50
2023-02-17T05:16:24.787Z,13.30
2023-02-17T05:19:24.770Z,11.80
2023-02-17T05:22:25.777Z,13.50
2023-02-17T05:25:26.789Z,13.50
2023-02-17T05:28:29.297Z,14.80
2023-02-17T05:31:31.895Z,12.70
2023-02-17T05:34:33.319Z,13.60
2023-02-17T05:37:35.789Z,13.60
2023-02-17T05:40:39.270Z,13.40
2023-02-17T05:43:41.846Z,13.80
2023-02-17T05:46:45.120Z,12.70
2023-02-17T05:52:51.767Z,13.10
2023-02-17T05:55:53.866Z,12.40
2023-02-17T05:58:53.817Z,11.80
2023-02-17T06:01:57.912Z,14.10
2023-02-17T06:05:00.993Z,13.40
2023-02-17T06:08:04.822Z,12.20
2023-02-17T06:11:08.204Z,13.10
2023-02-17T06:14:07.848Z,13.80
2023-02-17T06:17:12.180Z,11.80
2023-02-17T06:20:17.904Z,12.70
2023-02-17T06:23:17.910Z,11.60
2023-02-17T06:26:21.942Z,12.10
2023-02-17T06:29:24.914Z,12.30
2023-02-17T06:32:26.111Z,11.10
2023-02-17T06:35:28.366Z,12.30
2023-02-17T06:38:30.269Z,12.50
2023-02-17T06:41:31.387Z,12.20
2023-02-17T06:44:37.092Z,12.60
2023-02-17T06:47:38.917Z,12.60
2023-02-17T06:50:39.953Z,11.80
2023-02-17T06:53:41.979Z,12.70
2023-02-17T06:56:45.768Z,13.40
2023-02-17T06:59:49.362Z,13.00
2023-02-17T07:02:52.190Z,12.60
2023-02-17T07:05:54.150Z,11.90
2023-02-17T07:08:55.077Z,11.90
2023-02-17T07:11:56.940Z,11.50
2023-02-17T07:14:59.317Z,11.70
2023-02-17T07:18:01.217Z,11.00
2023-02-17T07:21:03.024Z,13.70
2023-02-17T07:24:02.993Z,12.60
2023-02-17T07:27:04.003Z,12.50
2023-02-17T07:30:03.998Z,12.70
2023-02-17T07:33:06.892Z,13.80
2023-02-17T07:36:09.038Z,13.30
2023-02-17T07:39:09.024Z,11.30
2023-02-17T07:42:11.015Z,12.00
2023-02-17T07:45:15.034Z,12.90
2023-02-17T07:48:16.089Z,13.20
2023-02-17T07:51:20.016Z,11.30
2023-02-17T07:54:22.098Z,13.30
2023-02-17T07:57:26.242Z,13.50
2023-02-17T08:00:30.444Z,13.30
2023-02-17T08:03:31.049Z,13.30
2023-02-17T08:06:36.229Z,11.20
2023-02-17T08:09:56.066Z,11.80
2023-02-17T08:13:15.095Z,12.00
2023-02-17T08:19:47.544Z,12.40
2023-02-17T08:22:51.088Z,12.10
2023-02-17T08:26:12.252Z,13.30
2023-02-17T08:29:25.809Z,12.30
2023-02-17T08:32:28.157Z,12.50
2023-02-17T08:35:36.631Z,12.60
2023-02-17T08:38:46.308Z,13.00
2023-02-17T08:41:52.193Z,13.30
2023-02-17T08:45:01.462Z,12.50
2023-02-17T08:48:10.346Z,14.40
2023-02-17T08:51:13.320Z,12.90
2023-02-17T08:54:16.288Z,13.10
2023-02-17T08:57:21.448Z,13.20
2023-02-17T09:00:27.735Z,15.20
2023-02-17T09:03:33.202Z,14.00
2023-02-17T09:06:34.157Z,14.90
2023-02-17T09:09:37.292Z,13.90
2023-02-17T09:12:42.776Z,14.00
2023-02-17T09:15:44.257Z,14.10
2023-02-17T09:18:47.167Z,14.00
2023-02-17T09:21:48.744Z,14.70
2023-02-17T09:24:52.251Z,15.70
2023-02-17T09:27:55.767Z,14.80
2023-02-17T09:31:05.406Z,13.90
2023-02-17T09:34:12.874Z,15.40
2023-02-17T09:37:14.209Z,15.40
2023-02-17T09:40:18.189Z,16.20
2023-02-17T09:43:31.767Z,14.50
2023-02-17T09:46:37.295Z,14.50
2023-02-17T09:49:41.305Z,14.80
2023-02-17T09:53:11.336Z,14.30
2023-02-17T09:56:12.269Z,14.50
2023-02-17T09:59:50.273Z,13.70
2023-02-17T10:03:04.324Z,14.20
2023-02-17T10:06:22.278Z,14.20
2023-02-17T10:09:56.327Z,14.40
2023-02-17T10:13:04.453Z,13.60
2023-02-17T10:16:09.474Z,14.60
2023-02-17T10:19:13.272Z,15.00
2023-02-17T10:22:32.284Z,14.50
2023-02-17T10:25:52.414Z,14.10
2023-02-17T10:29:10.420Z,15.40
2023-02-17T10:32:34.813Z,14.40
2023-02-17T10:35:56.425Z,14.70
2023-02-17T10:39:05.292Z,14.80
2023-02-17T10:42:05.290Z,14.60
2023-02-17T10:45:13.360Z,14.20
2023-02-17T10:48:20.301Z,16.70
2023-02-17T10:51:26.311Z,14.60
2023-02-17T10:54:35.339Z,17.00
2023-02-17T10:57:38.593Z,15.30
2023-02-17T11:00:40.365Z,16.10
2023-02-17T11:03:44.377Z,13.80
2023-02-17T11:06:44.320Z,15.00
2023-02-17T11:09:47.395Z,16.00
2023-02-17T11:12:52.605Z,15.40
2023-02-17T11:15:59.835Z,15.40
2023-02-17T11:19:02.381Z,15.90
2023-02-17T11:22:05.568Z,15.40
2023-02-17T11:25:15.634Z,14.90
2023-02-17T11:28:23.838Z,16.10
2023-02-17T11:31:42.712Z,14.00
2023-02-17T11:34:43.440Z,16.30
2023-02-17T11:37:43.486Z,16.00
2023-02-17T11:40:47.394Z,15.10
2023-02-17T11:44:11.448Z,16.70
2023-02-17T11:47:16.828Z,17.30
2023-02-17T11:50:50.467Z,15.20
2023-02-17T11:54:00.437Z,14.90
2023-02-17T11:57:44.381Z,15.40
2023-02-17T12:01:23.529Z,15.20
2023-02-17T12:04:39.525Z,15.10
2023-02-17T12:08:18.462Z,14.20
2023-02-17T12:11:32.412Z,16.20
2023-02-17T12:15:01.546Z,13.50
2023-02-17T12:18:46.237Z,14.10
2023-02-17T12:22:07.516Z,14.30
2023-02-17T12:25:24.480Z,13.00
2023-02-17T12:28:39.593Z,13.80
2023-02-17T12:32:02.668Z,12.90
2023-02-17T12:35:10.639Z,12.80
2023-02-17T12:38:16.702Z,13.80
2023-02-17T12:41:19.527Z,14.10
2023-02-17T12:44:25.702Z,12.80
2023-02-17T12:47:35.733Z,13.60
2023-02-17T12:50:55.499Z,13.20
2023-02-17T12:54:13.057Z,11.50
2023-02-17T12:57:26.585Z,15.10
2023-02-17T13:00:39.771Z,13.10
2023-02-17T13:03:47.887Z,11.90
2023-02-17T13:06:51.557Z,14.40
2023-02-17T13:09:59.601Z,14.00
2023-02-17T13:13:09.758Z,13.00
2023-02-17T13:16:25.564Z,14.30
2023-02-17T13:19:28.019Z,12.20
2023-02-17T13:22:35.675Z,12.20
2023-02-17T13:25:45.564Z,11.40
2023-02-17T13:28:53.131Z,13.80
2023-02-17T13:32:02.719Z,12.90
2023-02-17T13:35:13.759Z,13.50
2023-02-17T13:38:15.683Z,13.20
2023-02-17T13:41:18.577Z,14.00
2023-02-17T13:44:39.724Z,12.90
2023-02-17T13:47:49.700Z,13.00
2023-02-17T13:50:57.708Z,12.10
2023-02-17T13:54:02.689Z,13.80
2023-02-17T13:57:08.147Z,12.80
2023-02-17T14:00:41.671Z,12.30
2023-02-17T14:03:56.654Z,13.60
2023-02-17T14:06:56.875Z,12.50
2023-02-17T14:10:06.399Z,14.60
2023-02-17T14:13:07.732Z,13.60
2023-02-17T14:16:10.965Z,14.30
2023-02-17T14:19:19.510Z,14.30
2023-02-17T14:22:21.756Z,13.40
2023-02-17T14:25:26.257Z,13.00
2023-02-17T14:28:36.907Z,14.20
2023-02-17T14:31:41.148Z,12.30
2023-02-17T14:34:44.917Z,12.30
2023-02-17T14:37:45.914Z,13.80
2023-02-17T14:40:46.672Z,15.60
2023-02-17T14:43:48.691Z,13.10
2023-02-17T14:46:48.799Z,15.30
2023-02-17T14:49:49.755Z,14.00
2023-02-17T14:52:59.741Z,14.90
2023-02-17T14:56:25.714Z,15.10
2023-02-17T14:59:25.724Z,15.50
2023-02-17T15:02:32.142Z,14.10
2023-02-17T15:05:37.795Z,13.50
2023-02-17T15:08:46.411Z,14.40
2023-02-17T15:11:51.884Z,14.50
2023-02-17T15:14:56.835Z,14.20
2023-02-17T15:18:10.279Z,15.70
2023-02-17T15:21:14.006Z,14.80
2023-02-17T15:24:38.829Z,14.20
2023-02-17T15:27:43.101Z,17.10
2023-02-17T15:30:47.245Z,16.20
2023-02-17T15:33:48.823Z,13.60
2023-02-17T15:36:52.417Z,14.60
2023-02-17T15:39:59.397Z,16.60
2023-02-17T15:43:15.819Z,16.80
2023-02-17T15:46:30.081Z,18.30
2023-02-17T15:49:33.851Z,18.20
2023-02-17T15:52:37.873Z,21.50
2023-02-17T15:55:43.827Z,19.90
2023-02-17T15:58:47.379Z,19.60
2023-02-17T16:01:52.193Z,18.20
2023-02-17T16:04:54.999Z,18.40
2023-02-17T16:07:59.806Z,20.00
2023-02-17T16:11:05.410Z,21.20
2023-02-17T16:14:11.009Z,21.50
2023-02-17T16:17:14.422Z,19.40
2023-02-17T16:20:26.285Z,23.00
2023-02-17T16:23:33.104Z,19.80
2023-02-17T16:26:47.029Z,23.40
2023-02-17T16:29:48.074Z,24.90
2023-02-17T16:32:56.917Z,21.30
2023-02-17T16:36:14.121Z,24.60
2023-02-17T16:39:29.941Z,24.30
2023-02-17T16:42:36.505Z,21.80
2023-02-17T16:45:44.223Z,23.60
2023-02-17T16:48:48.972Z,22.40
2023-02-17T16:51:52.486Z,24.40
2023-02-17T16:55:01.927Z,22.90
2023-02-17T16:58:07.016Z,21.10
2023-02-17T17:01:12.523Z,22.00
2023-02-17T17:04:17.109Z,20.50
2023-02-17T17:07:20.279Z,21.30
2023-02-17T17:10:24.978Z,21.50
2023-02-17T17:13:29.575Z,22.40
2023-02-17T17:16:39.325Z,22.40
2023-02-17T17:19:43.032Z,21.80
2023-02-17T17:22:45.224Z,22.50
2023-02-17T17:25:57.216Z,20.90
2023-02-17T17:29:00.042Z,24.30
2023-02-17T17:32:02.270Z,22.40
2023-02-17T17:35:07.502Z,23.20
2023-02-17T17:38:08.455Z,25.70
2023-02-17T17:41:17.227Z,26.30
2023-02-17T17:44:17.985Z,25.50
2023-02-17T17:47:29.432Z,25.80
2023-02-17T17:50:37.086Z,27.00
2023-02-17T17:53:41.849Z,27.30
2023-02-17T17:56:52.980Z,27.30
2023-02-17T17:59:55.269Z,28.80
2023-02-17T18:06:10.755Z,26.30
2023-02-17T18:09:31.778Z,29.90
2023-02-17T18:12:33.175Z,29.90
2023-02-17T18:15:38.122Z,29.00
2023-02-17T18:18:39.164Z,33.80
2023-02-17T18:21:41.912Z,33.10
2023-02-17T18:24:43.180Z,32.30
2023-02-17T18:28:03.622Z,34.30
2023-02-17T18:31:14.211Z,36.20
2023-02-17T18:34:15.311Z,32.20
2023-02-17T18:37:17.084Z,37.10
2023-02-17T18:40:21.159Z,36.70
2023-02-17T18:43:23.281Z,39.00
2023-02-17T18:46:26.756Z,40.50
2023-02-17T18:49:25.127Z,42.70
2023-02-17T18:52:28.544Z,42.30
2023-02-17T18:55:43.393Z,40.30
2023-02-17T18:58:45.156Z,40.00
2023-02-17T19:01:59.268Z,39.10
2023-02-17T19:05:14.287Z,43.20
2023-02-17T19:08:34.733Z,39.20
2023-02-17T19:11:42.223Z,38.10
2023-02-17T19:15:04.172Z,37.20
2023-02-17T19:18:36.857Z,35.40
2023-02-17T19:29:21.001Z,27.80
2023-02-17T19:32:53.816Z,33.40
2023-02-17T19:39:40.979Z,36.10
2023-02-17T19:54:19.481Z,27.50
2023-02-17T19:57:49.497Z,27.80
2023-02-17T20:01:58.924Z,26.60
2023-02-17T20:06:01.606Z,26.40
2023-02-17T20:09:47.950Z,36.70
2023-02-17T20:13:08.715Z,29.00
2023-02-17T20:24:02.461Z,25.60
2023-02-17T20:31:24.660Z,24.30
2023-02-17T20:35:00.741Z,24.80
2023-02-17T20:38:18.978Z,22.90
2023-02-17T20:41:52.297Z,25.10
2023-02-17T20:44:59.442Z,27.20
2023-02-17T20:48:21.369Z,26.70
2023-02-17T20:51:34.133Z,24.10
2023-02-17T20:54:52.206Z,26.70
2023-02-17T20:58:06.692Z,25.40
2023-02-17T21:01:32.933Z,25.10
2023-02-17T21:08:05.227Z,23.40
2023-02-17T21:11:15.536Z,25.20
2023-02-17T21:14:22.827Z,24.30
2023-02-17T21:17:40.465Z,23.00
2023-02-17T21:20:46.576Z,23.70
2023-02-17T21:24:05.783Z,26.30
2023-02-17T21:27:14.788Z,23.30
2023-02-17T21:30:37.601Z,26.40
2023-02-17T21:33:41.680Z,26.60
2023-02-17T21:36:57.840Z,28.30
2023-02-17T21:40:26.355Z,29.20
2023-02-17T21:43:52.646Z,25.40
2023-02-17T21:46:57.471Z,29.40
2023-02-17T21:50:05.729Z,28.30
2023-02-17T21:56:46.200Z,24.90
2023-02-17T21:59:50.404Z,27.60
2023-02-17T22:03:13.392Z,26.50
2023-02-17T22:09:57.792Z,26.00
2023-02-17T22:13:10.177Z,28.20
2023-02-17T22:16:19.593Z,28.20
2023-02-17T22:19:33.463Z,24.00
2023-02-17T22:26:56.802Z,27.30
2023-02-17T22:30:27.894Z,25.70
2023-02-17T22:33:32.470Z,26.70
2023-02-17T22:36:36.533Z,24.80
2023-02-17T22:39:39.748Z,26.20
2023-02-17T22:42:52.575Z,25.60
2023-02-17T22:47:05.088Z,27.40
2023-02-17T22:50:09.096Z,27.10
2023-02-17T22:53:15.853Z,27.30
2023-02-17T22:56:21.341Z,28.70
2023-02-17T22:59:25.125Z,25.50
2023-02-17T23:02:32.313Z,26.10
2023-02-17T23:05:43.106Z,26.10
2023-02-17T23:08:50.597Z,25.80
2023-02-17T23:12:00.655Z,25.80
2023-02-17T23:15:12.935Z,27.00
2023-02-17T23:18:15.220Z,27.60
2023-02-17T23:24:29.404Z,24.80
2023-02-17T23:27:36.411Z,29.10
2023-02-17T23:30:39.851Z,28.00
2023-02-17T23:33:43.249Z,29.30
2023-02-17T23:36:51.891Z,27.20
2023-02-17T23:40:00.196Z,27.70
2023-02-17T23:43:12.407Z,28.10
2023-02-17T23:46:13.499Z,28.40
2023-02-17T23:49:16.411Z,29.10
2023-02-17T23:52:21.990Z,32.40
2023-02-17T23:55:28.429Z,31.60
2023-02-17T23:58:34.763Z,29.30
